Time;durP1;ratioP1;P1;durP2;ratioP2;P2;SDS_P1;SDS_P2;PMS_P1;PMS_P2;Temp;Humidity;BMP_temperature;BMP_pressure;BME280_temperature;BME280_humidity;BME280_pressure;Samples;Min_cycle;Max_cycle;Signal;HPM_P1;HPM_P2
2022/10/15 00:01:28;;;;;;;42.33;26.08;;;;;;;21.84;49.58;100792.53;5096667;28;20048;-75
2022/10/15 00:03:53;;;;;;;46.00;26.83;;;;;;;22.80;47.31;100792.13;5096856;28;20406;-75
2022/10/15 00:06:20;;;;;;;45.55;27.30;;;;;;;22.76;47.58;100790.63;5094755;28;20486;-75
2022/10/15 00:08:46;;;;;;;47.85;27.02;;;;;;;22.78;47.76;100783.41;5095978;28;20059;-75
2022/10/15 00:11:17;;;;;;;43.72;27.10;;;;;;;22.39;48.44;100787.53;5096164;28;20035;-75
2022/10/15 00:13:43;;;;;;;45.75;26.55;;;;;;;22.33;49.08;100782.56;5097089;28;20036;-75
2022/10/15 00:16:13;;;;;;;48.47;28.13;;;;;;;22.81;47.36;100788.53;5095183;28;20035;-75
2022/10/15 00:18:39;;;;;;;44.83;27.17;;;;;;;23.36;45.57;100778.03;5095349;28;20390;-75
2022/10/15 00:21:10;;;;;;;43.35;27.70;;;;;;;23.61;45.05;100771.09;5093413;28;20489;-75
2022/10/15 00:23:37;;;;;;;44.92;27.83;;;;;;;22.78;47.18;100783.41;5092299;28;20020;-75
2022/10/15 00:26:08;;;;;;;48.42;27.20;;;;;;;23.17;46.80;100779.19;5093139;28;20494;-75
2022/10/15 00:28:33;;;;;;;46.50;27.38;;;;;;;23.28;46.74;100781.19;5091554;28;20118;-75
2022/10/15 00:31:05;;;;;;;42.63;25.70;;;;;;;22.36;48.29;100779.75;5094121;28;20115;-75
2022/10/15 00:33:31;;;;;;;44.30;25.37;;;;;;;23.38;46.28;100776.09;5110291;28;20487;-75
2022/10/15 00:36:01;;;;;;;41.28;26.10;;;;;;;23.47;46.11;100778.19;5094260;28;20115;-75
2022/10/15 00:38:27;;;;;;;47.95;28.05;;;;;;;22.87;47.18;100788.16;5093005;28;20024;-75
2022/10/15 00:40:53;;;;;;;38.65;25.38;;;;;;;22.99;47.29;100785.69;5094305;28;20534;-75
2022/10/15 00:43:42;;;;;;;46.28;28.13;;;;;;;23.29;45.75;100776.72;5092901;28;20440;-75
2022/10/15 00:46:32;;;;;;;45.72;27.70;;;;;;;22.97;47.83;100774.25;5092694;28;20024;-75
2022/10/15 00:49:09;;;;;;;43.42;26.25;;;;;;;21.82;50.15;100773.13;5094487;28;20609;-75
2022/10/15 00:51:41;;;;;;;43.80;26.17;;;;;;;22.16;49.61;100771.13;5092941;28;20119;-75
2022/10/15 00:54:08;;;;;;;47.53;27.15;;;;;;;22.36;49.34;100771.75;5093145;28;20075;-75
2022/10/15 00:56:35;;;;;;;43.35;27.58;;;;;;;22.94;48.12;100766.44;5091379;28;20394;-76
2022/10/15 00:59:01;;;;;;;49.22;27.05;;;;;;;23.15;46.96;100770.47;5091939;28;20487;-75
2022/10/15 01:01:26;;;;;;;45.53;28.67;;;;;;;23.64;45.85;100760.19;5092328;28;20031;-75
2022/10/15 01:03:54;;;;;;;47.33;27.75;;;;;;;22.85;47.89;100763.41;5093002;28;20027;-75
2022/10/15 01:06:20;;;;;;;47.15;27.98;;;;;;;22.66;48.09;100762.84;5092019;28;20019;-75
2022/10/15 01:08:45;;;;;;;49.08;27.75;;;;;;;23.49;46.06;100752.28;5092194;28;20103;-75
2022/10/15 01:11:29;;;;;;;48.08;27.73;;;;;;;23.47;46.12;100754.16;5090092;28;20388;-75
2022/10/15 01:14:13;;;;;;;51.28;28.05;;;;;;;22.93;46.82;100762.94;5084272;28;20035;-75
2022/10/15 01:16:52;;;;;;;46.28;27.48;;;;;;;23.05;47.75;100747.97;5082864;28;20023;-75
2022/10/15 01:19:46;;;;;;;47.58;27.92;;;;;;;23.01;47.63;100751.78;5092253;28;20062;-75
2022/10/15 01:22:30;;;;;;;50.30;29.20;;;;;;;22.71;47.85;100742.13;5092726;28;20020;-75
2022/10/15 01:24:55;;;;;;;46.08;28.85;;;;;;;23.40;46.18;100736.88;5090553;28;20492;-75
2022/10/15 01:27:37;;;;;;;49.97;28.40;;;;;;;22.30;49.22;100748.16;5091151;28;20036;-75
2022/10/15 01:30:13;;;;;;;48.30;29.17;;;;;;;23.04;47.39;100735.59;5072401;28;20115;-75
2022/10/15 01:32:53;;;;;;;51.78;28.70;;;;;;;22.77;47.98;100732.88;5088491;28;20127;-75
2022/10/15 01:35:36;;;;;;;51.08;29.50;;;;;;;22.49;48.68;100730.13;5090970;28;20496;-75
2022/10/15 01:38:11;;;;;;;47.00;27.98;;;;;;;22.91;47.91;100729.34;5091817;28;20056;-75
2022/10/15 01:40:53;;;;;;;45.63;29.38;;;;;;;23.08;47.07;100731.78;5090589;28;20134;-75
2022/10/15 01:43:30;;;;;;;50.03;29.45;;;;;;;22.61;48.81;100723.16;5091617;28;20024;-75
2022/10/15 01:46:01;;;;;;;53.85;29.58;;;;;;;22.66;48.26;100725.56;5087971;28;20024;-75
2022/10/15 01:48:28;;;;;;;48.03;29.88;;;;;;;22.46;49.03;100730.31;5090744;28;20051;-75
2022/10/15 01:50:59;;;;;;;47.00;27.75;;;;;;;23.04;46.85;100719.63;5092275;28;20016;-75
2022/10/15 01:53:26;;;;;;;48.00;29.17;;;;;;;22.75;47.57;100724.13;5090818;28;20035;-75
2022/10/15 01:56:05;;;;;;;49.58;29.70;;;;;;;22.94;47.63;100718.47;5089431;28;20030;-75
2022/10/15 01:58:31;;;;;;;47.00;30.63;;;;;;;22.90;47.37;100727.63;5092420;28;20419;-75
2022/10/15 02:00:58;;;;;;;52.40;30.13;;;;;;;22.08;49.47;100724.63;5091678;28;20028;-75
2022/10/15 02:03:23;;;;;;;53.67;30.25;;;;;;;22.25;49.17;100720.94;5091305;28;20054;-75
2022/10/15 02:06:02;;;;;;;51.28;30.17;;;;;;;22.77;48.78;100712.41;5090427;28;20430;-75
2022/10/15 02:08:31;;;;;;;45.95;28.48;;;;;;;23.37;46.71;100700.59;5108394;28;20032;-75
2022/10/15 02:11:07;;;;;;;51.15;29.10;;;;;;;23.41;46.49;100711.91;5091712;28;20038;-75
2022/10/15 02:14:10;;;;;;;52.13;28.98;;;;;;;22.01;49.67;100702.88;5092089;28;20020;-75
2022/10/15 02:16:55;;;;;;;49.10;29.48;;;;;;;21.89;49.44;100709.75;5093306;28;20035;-76
2022/10/15 02:19:29;;;;;;;51.72;30.13;;;;;;;22.82;47.93;100699.66;5091439;28;20027;-75
2022/10/15 02:22:05;;;;;;;50.55;29.42;;;;;;;23.08;46.66;100694.47;5090010;28;20531;-75
2022/10/15 02:25:03;;;;;;;49.70;28.27;;;;;;;22.59;47.85;100689.63;5090110;28;20119;-75
2022/10/15 02:27:30;;;;;;;49.75;28.60;;;;;;;22.87;47.35;100680.72;5078115;28;20457;-75
2022/10/15 02:29:57;;;;;;;46.28;28.27;;;;;;;23.23;45.97;100675.78;5082563;28;20027;-75
2022/10/15 02:32:24;;;;;;;51.17;28.98;;;;;;;23.42;45.80;100680.75;5090296;28;20023;-75
2022/10/15 02:34:51;;;;;;;43.90;27.10;;;;;;;23.10;46.03;100679.22;5091299;28;20361;-76
2022/10/15 02:37:21;;;;;;;45.92;29.25;;;;;;;23.08;46.21;100662.50;5089526;28;20020;-75
2022/10/15 02:39:47;;;;;;;43.22;28.05;;;;;;;22.92;46.10;100661.78;5091266;28;20487;-75
2022/10/15 02:42:15;;;;;;;41.50;26.17;;;;;;;22.75;46.85;100655.72;5090902;28;20035;-75
2022/10/15 02:44:40;;;;;;;43.50;28.17;;;;;;;22.83;45.91;100650.75;5089640;28;20024;-75
2022/10/15 02:47:06;;;;;;;44.53;26.23;;;;;;;22.73;46.13;100652.28;5091207;28;20164;-75
2022/10/15 02:49:31;;;;;;;42.60;27.05;;;;;;;22.65;46.42;100655.44;5090613;28;20052;-75
2022/10/15 02:51:57;;;;;;;41.25;26.63;;;;;;;22.87;45.90;100644.28;5091542;28;20035;-75
2022/10/15 02:54:22;;;;;;;40.80;25.25;;;;;;;22.60;46.24;100648.69;5092634;28;20159;-76
2022/10/15 02:56:47;;;;;;;40.50;26.40;;;;;;;22.51;46.55;100653.66;5088673;28;20073;-76
2022/10/15 02:59:13;;;;;;;42.55;27.65;;;;;;;22.47;47.26;100654.78;5090584;28;20031;-76
2022/10/15 03:01:38;;;;;;;41.83;27.65;;;;;;;22.14;47.80;100642.59;5091191;28;20095;-75
2022/10/15 03:04:04;;;;;;;42.40;26.77;;;;;;;22.32;47.47;100643.25;5089647;28;20488;-75
2022/10/15 03:06:29;;;;;;;43.25;26.52;;;;;;;21.91;48.47;100643.16;5090135;28;20146;-75
2022/10/15 03:08:54;;;;;;;40.28;26.42;;;;;;;22.07;47.86;100643.94;5090586;28;20123;-75
2022/10/15 03:11:20;;;;;;;43.13;26.35;;;;;;;22.30;47.55;100639.00;5089922;28;20031;-76
2022/10/15 03:13:45;;;;;;;46.67;28.27;;;;;;;22.33;47.54;100638.81;5090238;28;20027;-76
2022/10/15 03:16:11;;;;;;;40.63;27.08;;;;;;;22.31;47.42;100624.72;5091751;28;20031;-76
2022/10/15 03:18:37;;;;;;;42.63;26.58;;;;;;;22.32;47.02;100631.75;5089833;28;20039;-75
2022/10/15 03:21:03;;;;;;;46.40;28.02;;;;;;;22.41;46.83;100635.69;5090848;28;20020;-76
2022/10/15 03:23:28;;;;;;;39.83;26.30;;;;;;;22.49;46.66;100638.72;5071001;28;20115;-75
2022/10/15 03:25:54;;;;;;;41.90;26.48;;;;;;;22.45;46.41;100642.53;5072806;28;20142;-76
2022/10/15 03:28:20;;;;;;;41.70;26.58;;;;;;;22.32;46.77;100637.09;5089679;28;20387;-76
2022/10/15 03:30:46;;;;;;;43.55;27.63;;;;;;;22.10;47.10;100633.09;5090224;28;20028;-75
2022/10/15 03:33:11;;;;;;;36.35;24.35;;;;;;;22.24;46.53;100634.06;5090982;28;20468;-75
2022/10/15 03:35:37;;;;;;;38.55;25.67;;;;;;;22.19;46.84;100637.84;5090589;28;20023;-75
2022/10/15 03:38:04;;;;;;;40.08;26.02;;;;;;;22.12;46.53;100636.53;5088826;28;20031;-76
2022/10/15 03:40:30;;;;;;;37.72;25.65;;;;;;;21.92;47.18;100642.22;5087960;28;20020;-76
2022/10/15 03:42:55;;;;;;;37.20;24.75;;;;;;;22.22;45.81;100641.28;5091017;28;20101;-76
2022/10/15 03:45:22;;;;;;;37.20;26.17;;;;;;;21.92;46.56;100640.41;5090017;28;20026;-76
2022/10/15 03:47:47;;;;;;;38.13;25.33;;;;;;;21.76;46.49;100635.16;5090997;28;20566;-75
2022/10/15 03:50:13;;;;;;;37.22;25.20;;;;;;;21.86;46.67;100636.31;5089984;28;20042;-76
2022/10/15 03:52:39;;;;;;;34.85;24.13;;;;;;;21.88;46.74;100644.19;5089177;28;20139;-76
2022/10/15 03:55:06;;;;;;;35.47;22.70;;;;;;;22.01;45.92;100644.31;5090386;28;20099;-76
2022/10/15 03:57:31;;;;;;;38.80;23.50;;;;;;;21.88;46.46;100648.66;5092119;28;20016;-76
2022/10/15 03:59:56;;;;;;;35.38;24.92;;;;;;;21.71;46.89;100653.19;5094000;28;20024;-76
2022/10/15 04:02:22;;;;;;;35.75;24.38;;;;;;;21.72;46.82;100660.25;5093327;28;20474;-76
2022/10/15 04:04:50;;;;;;;37.20;25.42;;;;;;;21.52;47.63;100659.59;5094050;28;20444;-76
2022/10/15 04:07:16;;;;;;;40.40;25.53;;;;;;;21.60;47.14;100658.31;5092478;28;20774;-75
2022/10/15 04:09:41;;;;;;;40.65;26.00;;;;;;;21.57;47.89;100661.13;5092928;28;20061;-75
2022/10/15 04:12:06;;;;;;;41.03;26.30;;;;;;;21.93;46.64;100665.22;5095010;28;20044;-76
2022/10/15 04:14:32;;;;;;;40.42;26.25;;;;;;;21.68;47.58;100664.03;5093672;28;20055;-76
2022/10/15 04:16:57;;;;;;;48.58;29.10;;;;;;;21.57;48.24;100666.44;5094118;28;20048;-76
2022/10/15 04:19:23;;;;;;;41.47;27.65;;;;;;;21.68;48.18;100661.38;5092579;28;20020;-76
2022/10/15 04:21:49;;;;;;;47.13;29.33;;;;;;;21.46;49.01;100659.94;5093194;28;20031;-76
2022/10/15 04:24:14;;;;;;;46.70;29.35;;;;;;;21.88;48.73;100662.81;5094206;28;20024;-76
2022/10/15 04:26:39;;;;;;;44.85;28.48;;;;;;;22.07;48.68;100665.22;5093804;28;20027;-76
2022/10/15 04:29:05;;;;;;;46.47;29.42;;;;;;;21.55;49.26;100663.88;5099848;28;20251;-77
2022/10/15 04:31:30;;;;;;;43.88;29.58;;;;;;;20.90;51.60;100661.41;5100423;28;20048;-77
2022/10/15 04:33:56;;;;;;;49.58;30.73;;;;;;;21.45;51.48;100649.41;5089363;28;20035;-76
2022/10/15 04:36:21;;;;;;;50.55;31.25;;;;;;;20.57;54.74;100649.00;5091959;28;20024;-77
2022/10/15 04:38:46;;;;;;;50.78;31.88;;;;;;;21.89;51.79;100650.38;5095133;28;20023;-76
2022/10/15 04:41:12;;;;;;;55.72;32.72;;;;;;;21.02;55.09;100644.75;5092497;28;20031;-77
2022/10/15 04:43:39;;;;;;;52.05;32.08;;;;;;;20.63;57.35;100644.19;5082309;28;20024;-77
2022/10/15 04:46:07;;;;;;;55.30;33.78;;;;;;;21.00;56.13;100647.47;5093737;28;20020;-77
2022/10/15 04:48:34;;;;;;;56.67;34.55;;;;;;;20.88;56.94;100642.00;5092035;28;20123;-77
2022/10/15 04:51:03;;;;;;;55.08;34.13;;;;;;;20.43;59.03;100636.47;5090998;28;20078;-76
2022/10/15 04:53:30;;;;;;;61.25;34.33;;;;;;;20.68;60.51;100642.19;5093345;28;20097;-77
2022/10/15 04:56:00;;;;;;;57.38;32.75;;;;;;;19.65;64.37;100650.25;5092439;28;20480;-77
2022/10/15 04:58:25;;;;;;;62.92;33.42;;;;;;;21.13;59.48;100636.16;5093125;28;20058;-77
2022/10/15 05:00:50;;;;;;;57.22;32.13;;;;;;;21.24;56.80;100632.88;5093444;28;20031;-77
2022/10/15 05:03:16;;;;;;;56.85;31.92;;;;;;;21.10;58.99;100639.88;5091811;28;20129;-77
2022/10/15 05:05:41;;;;;;;62.67;32.63;;;;;;;21.99;54.49;100635.56;5093714;28;20020;-77
2022/10/15 05:08:06;;;;;;;63.00;35.70;;;;;;;20.81;60.77;100637.06;5092897;28;20020;-77
2022/10/15 05:10:32;;;;;;;64.45;34.17;;;;;;;21.00;59.83;100636.00;5092459;28;20032;-77
2022/10/15 05:12:57;;;;;;;63.00;32.35;;;;;;;20.74;59.98;100635.66;5094056;28;20059;-77
2022/10/15 05:15:25;;;;;;;56.90;31.85;;;;;;;22.04;55.46;100633.47;5089279;28;20028;-76
2022/10/15 05:17:50;;;;;;;61.00;31.45;;;;;;;21.91;55.19;100638.69;5121778;27;20039;-76
2022/10/15 05:20:16;;;;;;;56.67;31.52;;;;;;;21.91;55.65;100629.84;5093334;28;20024;-77
2022/10/15 05:22:41;;;;;;;58.67;32.67;;;;;;;21.81;54.35;100635.72;5095143;28;20027;-76
2022/10/15 05:25:07;;;;;;;58.65;30.63;;;;;;;21.64;56.48;100633.25;5091430;28;20020;-77
2022/10/15 05:27:32;;;;;;;53.00;31.35;;;;;;;21.59;55.64;100630.00;5103060;28;20025;-77
2022/10/15 05:29:57;;;;;;;55.47;31.20;;;;;;;21.33;57.15;100627.03;5113134;28;20383;-77
2022/10/15 05:32:23;;;;;;;53.13;31.13;;;;;;;22.10;54.30;100622.44;5111686;28;20054;-77
2022/10/15 05:34:48;;;;;;;57.17;32.35;;;;;;;21.77;54.99;100628.03;5092376;28;20020;-77
2022/10/15 05:37:13;;;;;;;57.70;31.88;;;;;;;21.40;55.65;100622.22;5091143;28;20032;-76
2022/10/15 05:39:39;;;;;;;55.28;32.25;;;;;;;21.26;56.87;100615.06;5091238;28;20055;-76
2022/10/15 05:42:04;;;;;;;59.17;31.83;;;;;;;21.59;53.80;100611.38;5094763;28;20024;-76
2022/10/15 05:44:30;;;;;;;55.60;31.48;;;;;;;21.61;54.83;100604.16;5093515;28;20026;-76
2022/10/15 05:46:55;;;;;;;55.83;31.77;;;;;;;20.66;58.16;100606.00;5092700;28;20024;-77
2022/10/15 05:49:20;;;;;;;61.47;31.77;;;;;;;19.70;63.23;100619.06;5092149;28;20049;-76
2022/10/15 05:51:46;;;;;;;55.97;31.80;;;;;;;20.16;61.04;100614.00;5094164;28;20036;-77
2022/10/15 05:54:11;;;;;;;54.53;31.50;;;;;;;21.44;55.92;100623.75;5091873;28;20048;-76
2022/10/15 05:56:37;;;;;;;53.15;31.02;;;;;;;19.78;62.70;100635.44;5094470;28;20054;-76
2022/10/15 05:59:03;;;;;;;49.22;30.02;;;;;;;21.00;58.67;100625.38;5091343;28;20042;-77
2022/10/15 06:01:29;;;;;;;54.78;30.17;;;;;;;19.87;65.38;100634.13;5091982;28;20037;-77
2022/10/15 06:03:54;;;;;;;53.83;29.73;;;;;;;19.33;68.79;100635.03;5088388;28;20364;-77
2022/10/15 06:06:22;;;;;;;51.97;29.20;;;;;;;20.79;60.40;100622.16;5094991;28;20100;-77
2022/10/15 06:08:48;;;;;;;48.00;27.70;;;;;;;21.94;56.08;100627.00;5092142;28;20035;-76
2022/10/15 06:11:15;;;;;;;51.45;27.63;;;;;;;20.56;60.81;100616.28;5091039;28;20033;-77
2022/10/15 06:13:42;;;;;;;51.40;26.70;;;;;;;20.53;61.98;100620.91;5092056;28;20031;-77
2022/10/15 06:16:09;;;;;;;49.63;26.15;;;;;;;21.63;55.97;100623.53;5100090;28;20196;-77
2022/10/15 06:18:35;;;;;;;54.60;26.85;;;;;;;21.32;58.59;100615.56;5092495;28;20353;-77
2022/10/15 06:21:01;;;;;;;51.50;26.90;;;;;;;20.77;60.78;100611.63;5090565;28;20031;-77
2022/10/15 06:23:26;;;;;;;51.78;27.05;;;;;;;21.47;59.55;100608.47;5092349;28;20027;-77
2022/10/15 06:25:52;;;;;;;56.33;28.08;;;;;;;21.64;57.41;100604.00;5091647;28;20024;-77
2022/10/15 06:28:17;;;;;;;53.67;28.15;;;;;;;21.68;56.12;100600.19;5072504;28;20499;-77
2022/10/15 06:30:43;;;;;;;60.35;26.50;;;;;;;21.33;57.09;100595.97;5083289;28;20032;-77
2022/10/15 06:33:08;;;;;;;63.70;29.50;;;;;;;21.98;55.56;100601.91;5109100;28;20032;-77
2022/10/15 06:35:34;;;;;;;65.07;29.90;;;;;;;21.86;55.82;100599.06;5107205;27;20395;-77
2022/10/15 06:38:01;;;;;;;72.47;31.60;;;;;;;21.80;57.68;100610.09;5091768;28;20060;-77
2022/10/15 06:40:26;;;;;;;73.07;32.05;;;;;;;21.55;59.08;100609.84;5091817;28;20027;-77
2022/10/15 06:42:52;;;;;;;83.85;34.03;;;;;;;21.54;57.22;100618.78;5091286;28;20020;-77
2022/10/15 06:45:17;;;;;;;79.65;34.50;;;;;;;21.73;56.68;100614.06;5093022;28;20060;-77
2022/10/15 06:47:43;;;;;;;74.75;32.70;;;;;;;21.87;56.47;100621.19;5089808;28;20123;-78
2022/10/15 06:50:08;;;;;;;80.10;34.90;;;;;;;21.48;59.41;100620.81;5091445;28;20067;-77
2022/10/15 06:52:34;;;;;;;69.38;32.50;;;;;;;20.95;61.37;100622.13;5090051;28;20039;-78
2022/10/15 06:55:00;;;;;;;73.10;32.85;;;;;;;21.78;57.80;100621.78;5090938;28;20024;-77
2022/10/15 06:57:29;;;;;;;69.97;33.40;;;;;;;21.60;58.02;100621.06;5090431;28;20016;-77
2022/10/15 06:59:54;;;;;;;66.78;31.60;;;;;;;22.16;56.21;100614.09;5090185;28;20032;-77
2022/10/15 07:02:20;;;;;;;60.42;30.65;;;;;;;21.73;57.31;100616.72;5091357;28;20510;-77
2022/10/15 07:04:45;;;;;;;62.10;30.55;;;;;;;22.25;55.10;100619.78;5091364;28;20119;-76
2022/10/15 07:07:11;;;;;;;65.53;33.13;;;;;;;20.79;62.15;100628.31;5091994;28;20039;-78
2022/10/15 07:09:37;;;;;;;71.22;34.95;;;;;;;21.12;60.92;100626.50;5089803;28;20517;-77
2022/10/15 07:12:03;;;;;;;85.00;36.33;;;;;;;21.02;61.94;100623.50;5091445;28;20024;-77
2022/10/15 07:14:28;;;;;;;85.18;37.22;;;;;;;20.81;63.12;100629.09;5091788;28;20080;-77
2022/10/15 07:16:54;;;;;;;93.22;38.88;;;;;;;21.48;59.61;100634.09;5090629;28;20024;-76
2022/10/15 07:19:19;;;;;;;104.20;39.40;;;;;;;20.96;60.02;100629.16;5090887;28;20043;-78
2022/10/15 07:21:44;;;;;;;110.30;39.15;;;;;;;21.85;58.72;100623.94;5091701;28;20058;-78
2022/10/15 07:24:10;;;;;;;104.22;38.25;;;;;;;21.16;60.95;100610.25;5107452;28;20065;-78
2022/10/15 07:26:36;;;;;;;102.95;39.17;;;;;;;21.73;59.04;100619.38;5091744;28;20024;-77
2022/10/15 07:29:02;;;;;;;99.15;39.47;;;;;;;21.36;58.71;100610.91;5100110;28;20075;-78
2022/10/15 07:31:27;;;;;;;101.18;39.03;;;;;;;21.58;57.94;100614.97;5103033;28;20039;-77
2022/10/15 07:33:53;;;;;;;99.18;38.72;;;;;;;21.92;56.45;100607.63;5096505;28;20089;-78
2022/10/15 07:36:19;;;;;;;107.72;39.65;;;;;;;21.53;60.92;100601.97;5094760;28;20050;-76
2022/10/15 07:38:45;;;;;;;89.07;37.47;;;;;;;20.81;61.91;100605.19;5093369;28;20020;-79
2022/10/15 07:41:11;;;;;;;92.35;37.83;;;;;;;22.52;55.16;100595.94;5090361;28;20024;-76
2022/10/15 07:43:37;;;;;;;89.32;38.28;;;;;;;22.45;54.78;100594.59;5094906;28;20035;-76
2022/10/15 07:46:03;;;;;;;72.38;32.88;;;;;;;21.47;58.39;100592.53;5094567;28;20020;-75
2022/10/15 07:48:29;;;;;;;61.97;29.15;;;;;;;21.09;61.96;100592.97;5093685;28;20084;-75
2022/10/15 07:50:55;;;;;;;59.13;27.42;;;;;;;21.39;60.46;100602.75;5093597;28;20484;-76
2022/10/15 07:53:21;;;;;;;58.15;27.52;;;;;;;21.27;59.11;100606.13;5111305;28;20047;-76
2022/10/15 07:55:46;;;;;;;48.38;25.13;;;;;;;22.00;58.70;100605.34;5097954;28;20499;-76
2022/10/15 07:58:12;;;;;;;50.13;24.70;;;;;;;21.95;57.67;100602.09;5099007;28;20051;-77
2022/10/15 08:00:37;;;;;;;42.40;22.25;;;;;;;23.09;53.78;100589.53;5096807;28;20035;-77
2022/10/15 08:03:03;;;;;;;40.85;23.33;;;;;;;23.14;53.29;100584.81;5094297;28;20020;-77
2022/10/15 08:05:28;;;;;;;38.95;22.67;;;;;;;22.59;53.97;100580.41;5096472;28;20485;-77
2022/10/15 08:07:54;;;;;;;40.67;21.77;;;;;;;23.01;53.98;100578.53;5094008;28;20039;-77
2022/10/15 08:10:19;;;;;;;37.72;20.75;;;;;;;22.61;55.10;100581.16;5092028;28;20024;-76
2022/10/15 08:12:45;;;;;;;35.25;20.60;;;;;;;23.12;52.85;100577.81;5094125;28;20111;-77
2022/10/15 08:15:10;;;;;;;35.10;19.73;;;;;;;22.98;53.63;100576.09;5094345;28;20077;-77
2022/10/15 08:17:35;;;;;;;38.13;21.55;;;;;;;22.16;55.75;100568.84;5092526;28;20035;-76
2022/10/15 08:20:01;;;;;;;32.42;19.80;;;;;;;23.06;54.04;100565.78;5092533;28;20476;-76
2022/10/15 08:22:26;;;;;;;38.00;19.90;;;;;;;23.45;51.99;100571.19;5093416;28;20088;-76
2022/10/15 08:24:51;;;;;;;35.22;20.70;;;;;;;24.26;50.32;100558.50;5087996;28;20028;-76
2022/10/15 08:27:17;;;;;;;33.90;19.65;;;;;;;23.91;49.73;100559.19;5102113;28;20496;-77
2022/10/15 08:29:42;;;;;;;31.65;18.48;;;;;;;23.88;50.85;100560.28;5094047;28;20088;-76
2022/10/15 08:32:07;;;;;;;32.08;18.42;;;;;;;23.47;50.96;100570.16;5086432;28;20039;-77
2022/10/15 08:34:33;;;;;;;26.67;16.60;;;;;;;23.29;51.45;100563.41;5109473;27;20072;-77
2022/10/15 08:36:58;;;;;;;34.67;18.63;;;;;;;24.14;50.48;100555.75;5095459;28;20020;-77
2022/10/15 08:39:24;;;;;;;30.08;16.52;;;;;;;23.06;51.93;100563.09;5096344;28;20484;-76
2022/10/15 08:42:03;;;;;;;25.98;15.73;;;;;;;23.06;52.85;100552.44;5093184;28;20557;-76
2022/10/15 08:44:33;;;;;;;26.52;16.17;;;;;;;24.02;50.76;100549.44;5093804;28;20119;-77
2022/10/15 08:47:06;;;;;;;25.83;15.88;;;;;;;22.24;55.59;100549.72;5092351;28;20085;-76
2022/10/15 08:49:44;;;;;;;22.75;14.32;;;;;;;23.15;53.43;100541.19;5093884;28;20024;-76
2022/10/15 08:52:23;;;;;;;23.38;13.90;;;;;;;22.23;55.78;100545.38;5092719;28;20377;-76
2022/10/15 08:54:50;;;;;;;22.95;14.05;;;;;;;23.38;53.19;100544.97;5091891;28;20396;-76
2022/10/15 08:57:56;;;;;;;19.55;13.00;;;;;;;23.51;52.65;100547.63;5092918;28;20020;-77
2022/10/15 09:00:35;;;;;;;20.58;13.85;;;;;;;24.01;51.61;100552.25;5065200;28;20032;-76
2022/10/15 09:03:09;;;;;;;18.65;13.27;;;;;;;23.65;51.72;100545.84;5089548;28;20576;-75
2022/10/15 09:05:40;;;;;;;20.60;13.68;;;;;;;24.38;49.33;100553.09;5095652;28;20036;-76
2022/10/15 09:08:29;;;;;;;19.55;13.20;;;;;;;21.99;55.22;100566.38;5091792;28;20051;-75
2022/10/15 09:11:15;;;;;;;20.40;13.45;;;;;;;23.33;51.91;100564.91;5082264;28;20395;-76
2022/10/15 09:13:43;;;;;;;22.50;14.57;;;;;;;23.61;51.86;100537.19;5092544;28;20024;-75
2022/10/15 09:16:22;;;;;;;22.50;13.73;;;;;;;23.57;52.77;100548.19;5087850;28;20480;-75
2022/10/15 09:18:51;;;;;;;20.98;14.02;;;;;;;23.18;53.28;100545.47;5089823;28;20027;-74
2022/10/15 09:21:18;;;;;;;22.38;13.77;;;;;;;23.04;54.52;100549.03;5092366;28;20015;-73
2022/10/15 09:23:44;;;;;;;27.25;14.18;;;;;;;23.20;54.39;100544.41;5091757;28;20105;-74
2022/10/15 09:26:21;;;;;;;24.35;14.55;;;;;;;23.05;54.74;100548.06;5090627;28;20157;-74
2022/10/15 09:29:00;;;;;;;25.30;14.88;;;;;;;23.47;53.42;100548.81;5095514;28;20392;-74
2022/10/15 09:31:32;;;;;;;26.10;14.90;;;;;;;23.14;54.79;100544.81;5101147;28;20048;-73
2022/10/15 09:34:10;;;;;;;26.83;14.40;;;;;;;23.27;55.06;100538.66;5095706;28;20062;-72
2022/10/15 09:36:43;;;;;;;28.63;15.82;;;;;;;23.85;53.02;100534.63;5087694;28;20046;-72
2022/10/15 09:39:33;;;;;;;28.95;16.38;;;;;;;24.36;51.08;100522.16;5084638;28;20081;-72
2022/10/15 09:42:04;;;;;;;25.33;14.80;;;;;;;24.79;51.01;100516.31;5084512;28;20056;-73
2022/10/15 09:44:37;;;;;;;30.75;16.13;;;;;;;24.83;50.76;100520.47;5091345;28;20042;-73
2022/10/15 09:47:14;;;;;;;29.08;15.90;;;;;;;25.23;49.67;100513.91;5089944;28;20036;-73
2022/10/15 09:49:39;;;;;;;25.33;15.23;;;;;;;24.24;52.22;100523.06;5076095;28;20119;-74
2022/10/15 09:52:40;;;;;;;24.60;13.70;;;;;;;24.43;51.04;100523.41;5089097;28;20118;-73
2022/10/15 09:55:47;;;;;;;25.45;13.93;;;;;;;23.93;52.62;100514.56;5088588;27;20040;-72
2022/10/15 09:58:17;;;;;;;23.05;13.65;;;;;;;24.66;51.26;100512.84;5086503;28;20384;-72
2022/10/15 10:01:07;;;;;;;22.67;12.52;;;;;;;23.78;54.35;100512.00;5092913;28;20563;-73
2022/10/15 10:03:34;;;;;;;22.95;12.32;;;;;;;23.79;53.94;100512.84;5085929;28;20040;-73
2022/10/15 10:06:07;;;;;;;21.77;12.93;;;;;;;23.79;56.44;100511.03;5084114;28;20039;-73
2022/10/15 10:08:37;;;;;;;24.42;12.30;;;;;;;24.89;50.65;100501.31;5105088;27;20028;-73
2022/10/15 10:11:05;;;;;;;18.65;11.93;;;;;;;24.75;50.94;100506.00;5091677;28;20055;-73
2022/10/15 10:13:36;;;;;;;20.23;11.32;;;;;;;24.87;50.50;100511.25;5090520;28;20034;-73
2022/10/15 10:16:07;;;;;;;19.07;11.53;;;;;;;24.00;54.69;100507.81;5091026;28;20507;-73
2022/10/15 10:18:33;;;;;;;18.25;11.18;;;;;;;23.63;55.07;100507.72;5091411;28;20028;-73
2022/10/15 10:21:04;;;;;;;19.60;11.85;;;;;;;24.17;53.73;100506.63;5091679;28;20388;-73
2022/10/15 10:23:38;;;;;;;18.63;11.68;;;;;;;24.01;54.13;100510.38;5088783;28;20062;-73
2022/10/15 10:26:09;;;;;;;25.92;14.40;;;;;;;23.26;57.58;100510.28;5091930;28;20065;-73
2022/10/15 10:28:51;;;;;;;18.80;10.30;;;;;;;23.85;54.39;100512.41;5089422;28;20076;-73
2022/10/15 10:31:25;;;;;;;17.77;9.60;;;;;;;24.82;51.22;100510.75;5091433;28;20059;-74
2022/10/15 10:33:51;;;;;;;17.08;9.82;;;;;;;23.27;55.63;100501.34;5088307;28;20026;-73
2022/10/15 10:36:22;;;;;;;15.07;9.52;;;;;;;24.29;53.50;100504.84;5091437;28;20016;-73
2022/10/15 10:39:08;;;;;;;15.10;9.52;;;;;;;24.07;55.07;100511.78;5091452;28;20046;-73
2022/10/15 10:42:22;;;;;;;16.92;10.13;;;;;;;24.50;52.17;100507.78;5088863;28;20038;-74
2022/10/15 10:44:47;;;;;;;15.70;9.93;;;;;;;25.37;50.29;100507.53;5035576;28;20051;-73
2022/10/15 10:47:37;;;;;;;16.80;10.50;;;;;;;25.36;49.64;100511.16;5090630;28;20019;-73
2022/10/15 10:50:41;;;;;;;15.10;10.00;;;;;;;25.22;49.69;100499.72;5092177;28;20028;-74
2022/10/15 10:53:19;;;;;;;15.27;10.10;;;;;;;25.22;50.56;100494.34;5090563;28;20048;-74
2022/10/15 10:55:45;;;;;;;23.40;14.07;;;;;;;24.71;51.51;100502.69;5089868;28;20031;-73
2022/10/15 10:58:20;;;;;;;19.13;11.98;;;;;;;24.97;50.89;100494.53;5090719;28;20490;-73
2022/10/15 11:00:49;;;;;;;14.80;10.30;;;;;;;24.58;53.00;100488.50;5090637;28;20046;-73
2022/10/15 11:03:42;;;;;;;13.48;9.60;;;;;;;24.53;51.68;100492.38;5090174;28;20020;-73
2022/10/15 11:06:11;;;;;;;;;;;;;;;24.25;53.74;100490.03;5090044;28;20128;-73
2022/10/15 11:08:45;;;;;;;13.43;8.75;;;;;;;23.93;55.26;100477.19;5088842;28;20378;-73
2022/10/15 11:11:24;;;;;;;14.40;9.48;;;;;;;23.84;57.29;100474.19;5090580;28;20126;-73
2022/10/15 11:14:16;;;;;;;14.93;9.48;;;;;;;23.74;56.14;100475.84;5090776;28;20024;-74
2022/10/15 11:17:20;;;;;;;14.25;9.63;;;;;;;23.87;57.78;100476.63;5081879;28;20528;-73
2022/10/15 11:20:04;;;;;;;15.27;9.70;;;;;;;24.44;55.04;100471.69;5079473;28;20040;-74
2022/10/15 11:23:03;;;;;;;16.33;9.90;;;;;;;23.46;58.75;100482.25;5090232;28;20032;-74